createdAt,value
2022-10-14T00:03:09.525Z,8.24
2022-10-14T00:08:12.437Z,8.24
2022-10-14T00:13:15.212Z,8.20
2022-10-14T00:18:17.963Z,8.18
2022-10-14T00:23:20.908Z,8.12
2022-10-14T00:28:23.711Z,8.09
2022-10-14T00:33:27.663Z,8.06
2022-10-14T00:38:30.248Z,8.02
2022-10-14T00:43:57.374Z,7.99
2022-10-14T00:49:05.478Z,7.98
2022-10-14T00:54:08.481Z,7.97
2022-10-14T00:59:11.820Z,7.96
2022-10-14T01:04:14.661Z,7.95
2022-10-14T01:09:20.547Z,7.93
2022-10-14T01:14:31.732Z,7.93
2022-10-14T01:20:05.271Z,7.93
2022-10-14T01:25:35.400Z,7.95
2022-10-14T01:30:43.502Z,7.94
2022-10-14T01:35:56.296Z,7.95
2022-10-14T01:41:01.893Z,7.93
2022-10-14T01:46:06.271Z,7.88
2022-10-14T01:51:15.667Z,7.84
2022-10-14T01:56:18.848Z,7.83
2022-10-14T02:01:21.715Z,7.85
2022-10-14T02:06:36.201Z,7.86
2022-10-14T02:12:04.956Z,7.85
2022-10-14T02:17:11.563Z,7.88
2022-10-14T02:22:36.374Z,7.88
2022-10-14T02:27:39.974Z,7.90
2022-10-14T02:32:43.508Z,7.90
2022-10-14T02:37:47.865Z,7.95
2022-10-14T02:42:50.691Z,7.96
2022-10-14T02:47:54.649Z,8.00
2022-10-14T02:52:57.517Z,7.97
2022-10-14T02:58:00.357Z,8.02
2022-10-14T03:03:03.615Z,8.04
2022-10-14T03:08:06.282Z,8.06
2022-10-14T03:13:09.133Z,8.09
2022-10-14T03:18:11.980Z,8.10
2022-10-14T03:23:14.813Z,8.10
2022-10-14T03:28:17.469Z,8.08
2022-10-14T03:33:20.737Z,8.03
2022-10-14T03:38:23.588Z,7.96
2022-10-14T03:43:26.457Z,7.95
2022-10-14T03:48:29.201Z,7.91
2022-10-14T03:53:32.050Z,7.95
2022-10-14T03:58:35.075Z,7.89
2022-10-14T04:03:37.847Z,7.87
2022-10-14T04:08:41.109Z,7.83
2022-10-14T04:13:45.383Z,7.79
2022-10-14T04:18:47.993Z,7.76
2022-10-14T04:23:51.184Z,7.65
2022-10-14T04:28:54.861Z,7.59
2022-10-14T04:33:57.775Z,7.54
2022-10-14T04:39:00.598Z,7.47
2022-10-14T04:44:03.471Z,7.38
2022-10-14T04:49:06.669Z,7.38
2022-10-14T04:54:10.217Z,7.38
2022-10-14T04:59:13.830Z,7.36
2022-10-14T05:04:16.641Z,7.41
2022-10-14T05:09:19.486Z,7.40
2022-10-14T05:14:22.746Z,7.44
2022-10-14T05:19:25.876Z,7.49
2022-10-14T05:24:28.712Z,7.51
2022-10-14T05:29:31.599Z,7.52
2022-10-14T05:34:35.153Z,7.48
2022-10-14T05:39:37.946Z,7.53
2022-10-14T05:44:40.766Z,7.62
2022-10-14T05:49:43.452Z,7.71
2022-10-14T05:54:46.312Z,7.85
2022-10-14T05:59:49.099Z,8.04
2022-10-14T06:04:52.789Z,8.23
2022-10-14T06:09:55.663Z,8.42
2022-10-14T06:14:58.974Z,8.59
2022-10-14T06:20:01.898Z,8.78
2022-10-14T06:25:05.229Z,9.01
2022-10-14T06:30:08.950Z,9.19
2022-10-14T06:35:12.112Z,9.47
2022-10-14T06:40:14.933Z,9.73
2022-10-14T06:45:17.829Z,9.93
2022-10-14T06:50:21.180Z,10.19
2022-10-14T06:55:24.009Z,10.47
2022-10-14T07:00:26.943Z,10.78
2022-10-14T07:05:30.045Z,11.13
2022-10-14T07:10:32.905Z,11.47
2022-10-14T07:15:37.893Z,11.88
2022-10-14T07:20:40.582Z,12.25
2022-10-14T07:25:43.532Z,12.72
2022-10-14T07:30:46.396Z,13.04
2022-10-14T07:35:49.135Z,13.31
2022-10-14T07:41:06.558Z,13.51
2022-10-14T07:46:09.683Z,13.49
2022-10-14T07:51:12.577Z,13.46
2022-10-14T07:56:15.402Z,13.41
2022-10-14T08:01:18.988Z,13.44
2022-10-14T08:06:22.029Z,13.50
2022-10-14T08:11:28.634Z,13.69
2022-10-14T08:16:33.878Z,13.78
2022-10-14T08:21:37.363Z,13.88
2022-10-14T08:26:48.945Z,13.96
2022-10-14T08:31:52.530Z,14.00
2022-10-14T08:36:55.481Z,13.92
2022-10-14T08:42:20.938Z,14.11
2022-10-14T08:47:30.914Z,14.34
2022-10-14T08:52:43.774Z,14.62
2022-10-14T08:57:57.378Z,14.87
2022-10-14T09:03:02.915Z,15.11
2022-10-14T09:08:08.239Z,15.32
2022-10-14T09:13:22.753Z,15.58
2022-10-14T09:19:01.152Z,15.85
2022-10-14T09:24:10.127Z,16.10
2022-10-14T09:29:57.296Z,16.26
2022-10-14T09:35:00.430Z,16.38
2022-10-14T09:40:23.423Z,16.66
2022-10-14T09:45:28.105Z,17.03
2022-10-14T09:50:48.641Z,17.16
2022-10-14T09:55:57.988Z,17.34
2022-10-14T10:01:02.006Z,17.52
2022-10-14T10:06:07.218Z,17.61
2022-10-14T10:11:14.164Z,17.79
2022-10-14T10:16:31.445Z,18.07
2022-10-14T10:21:34.220Z,18.45
2022-10-14T10:26:37.026Z,18.72
2022-10-14T10:31:42.923Z,18.89
2022-10-14T10:36:57.580Z,19.11
2022-10-14T10:42:09.745Z,19.41
2022-10-14T10:47:31.558Z,20.00
2022-10-14T10:53:01.445Z,20.44
2022-10-14T10:58:38.127Z,20.86
2022-10-14T11:04:22.029Z,21.74
2022-10-14T11:09:57.768Z,22.55
2022-10-14T11:15:30.264Z,23.21
2022-10-14T11:20:40.170Z,23.88
2022-10-14T11:25:49.895Z,24.25
2022-10-14T11:31:14.609Z,24.38
2022-10-14T11:36:31.610Z,24.29
2022-10-14T11:41:59.129Z,24.22
2022-10-14T11:47:05.882Z,24.16
2022-10-14T11:52:16.259Z,24.12
2022-10-14T11:57:30.130Z,23.73
2022-10-14T12:02:45.109Z,22.85
2022-10-14T12:08:06.748Z,22.03
2022-10-14T12:13:14.599Z,21.40
2022-10-14T12:18:19.683Z,20.92
2022-10-14T12:23:32.835Z,20.58
2022-10-14T12:28:40.549Z,20.29
2022-10-14T12:34:11.295Z,20.11
2022-10-14T12:39:17.186Z,19.94
2022-10-14T12:44:27.512Z,19.77
2022-10-14T12:49:33.576Z,19.61
2022-10-14T12:54:38.044Z,19.49
2022-10-14T12:59:41.470Z,19.40
2022-10-14T13:04:53.248Z,19.33
2022-10-14T13:10:00.767Z,19.22
2022-10-14T13:15:31.529Z,19.13
2022-10-14T13:20:34.342Z,19.07
2022-10-14T13:25:37.274Z,18.98
2022-10-14T13:30:54.238Z,18.95
2022-10-14T13:36:12.406Z,18.94
2022-10-14T13:41:18.784Z,18.98
2022-10-14T13:46:25.796Z,19.02
2022-10-14T13:51:40.750Z,18.94
2022-10-14T13:56:44.317Z,18.87
2022-10-14T14:01:47.701Z,18.77
2022-10-14T14:07:06.881Z,18.68
2022-10-14T14:12:15.570Z,18.59
2022-10-14T14:17:23.430Z,18.46
2022-10-14T14:22:28.221Z,18.40
2022-10-14T14:27:33.856Z,18.40
2022-10-14T14:32:36.765Z,18.39
2022-10-14T14:37:55.099Z,18.40
2022-10-14T14:43:01.935Z,18.37
2022-10-14T14:48:06.906Z,18.33
2022-10-14T14:53:21.144Z,18.25
2022-10-14T14:58:30.079Z,18.14
2022-10-14T15:04:13.374Z,18.02
2022-10-14T15:09:31.765Z,17.90
2022-10-14T15:14:50.993Z,17.73
2022-10-14T15:19:54.486Z,17.55
2022-10-14T15:24:58.975Z,17.35
2022-10-14T15:30:18.086Z,17.15
2022-10-14T15:35:22.512Z,16.92
2022-10-14T15:40:30.852Z,16.66
2022-10-14T15:45:33.747Z,16.40
2022-10-14T15:50:37.282Z,16.21
2022-10-14T15:55:40.085Z,16.00
2022-10-14T16:00:43.454Z,15.77
2022-10-14T16:05:46.308Z,15.48
2022-10-14T16:10:49.392Z,15.31
2022-10-14T16:15:59.377Z,15.12
2022-10-14T16:21:02.289Z,14.90
2022-10-14T16:26:05.802Z,14.73
2022-10-14T16:31:12.717Z,14.50
2022-10-14T16:36:16.006Z,14.28
2022-10-14T16:41:18.894Z,14.10
2022-10-14T16:46:41.685Z,13.94
2022-10-14T16:51:44.877Z,13.80
2022-10-14T16:56:53.571Z,13.60
2022-10-14T17:01:56.335Z,13.46
2022-10-14T17:07:07.208Z,13.35
2022-10-14T17:12:13.824Z,13.21
2022-10-14T17:17:17.357Z,13.04
2022-10-14T17:22:21.185Z,12.93
2022-10-14T17:27:24.685Z,12.82
2022-10-14T17:32:30.231Z,12.74
2022-10-14T17:37:32.963Z,12.64
2022-10-14T17:42:35.785Z,12.52
2022-10-14T17:47:38.653Z,12.42
2022-10-14T17:52:41.462Z,12.30
2022-10-14T17:57:44.853Z,12.28
2022-10-14T18:02:47.620Z,12.22
2022-10-14T18:07:51.128Z,12.19
2022-10-14T18:12:54.432Z,12.16
2022-10-14T18:17:58.434Z,12.09
2022-10-14T18:23:02.964Z,12.04
2022-10-14T18:28:05.877Z,11.99
2022-10-14T18:33:08.627Z,11.96
2022-10-14T18:38:12.055Z,11.94
2022-10-14T18:43:14.900Z,11.85
2022-10-14T18:48:20.281Z,11.78
2022-10-14T18:53:24.267Z,11.74
2022-10-14T18:58:27.448Z,11.69
2022-10-14T19:03:30.278Z,11.63
2022-10-14T19:08:35.831Z,11.60
2022-10-14T19:13:45.363Z,11.49
2022-10-14T19:18:52.435Z,11.46
2022-10-14T19:23:55.681Z,11.35
2022-10-14T19:29:02.853Z,11.28
2022-10-14T19:34:08.095Z,11.20
2022-10-14T19:39:13.377Z,11.15
2022-10-14T19:44:16.756Z,11.11
2022-10-14T19:49:19.658Z,11.04
2022-10-14T19:54:22.428Z,10.99
2022-10-14T19:59:25.218Z,10.95
2022-10-14T20:04:28.040Z,10.89
2022-10-14T20:09:30.849Z,10.81
2022-10-14T20:14:33.581Z,10.77
2022-10-14T20:19:37.682Z,10.70
2022-10-14T20:24:40.493Z,10.64
2022-10-14T20:29:43.340Z,10.59
2022-10-14T20:34:46.242Z,10.57
2022-10-14T20:39:49.596Z,10.49
2022-10-14T20:44:52.459Z,10.45
2022-10-14T20:49:55.852Z,10.39
2022-10-14T20:54:58.684Z,10.33
2022-10-14T21:00:01.472Z,10.29
2022-10-14T21:05:05.668Z,10.22
2022-10-14T21:10:09.261Z,10.22
2022-10-14T21:15:12.197Z,10.19
2022-10-14T21:20:15.711Z,10.18
2022-10-14T21:25:18.599Z,10.14
2022-10-14T21:30:21.369Z,10.13
2022-10-14T21:35:24.543Z,10.16
2022-10-14T21:40:27.394Z,10.19
2022-10-14T21:45:30.281Z,10.22
2022-10-14T21:50:33.072Z,10.21
2022-10-14T21:55:35.853Z,10.23
2022-10-14T22:00:38.707Z,10.21
2022-10-14T22:05:41.493Z,10.24
2022-10-14T22:10:45.435Z,10.25
2022-10-14T22:15:48.285Z,10.22
2022-10-14T22:20:59.351Z,10.19
2022-10-14T22:26:04.509Z,10.14
2022-10-14T22:31:13.160Z,10.04
2022-10-14T22:36:20.859Z,9.96
2022-10-14T22:41:29.817Z,9.90
2022-10-14T22:46:37.013Z,9.86
2022-10-14T22:51:40.709Z,9.78
2022-10-14T22:56:43.783Z,9.73
2022-10-14T23:01:46.594Z,9.70
2022-10-14T23:06:50.113Z,9.67
2022-10-14T23:11:53.985Z,9.60
2022-10-14T23:16:56.740Z,9.52
2022-10-14T23:21:59.346Z,9.46
2022-10-14T23:27:02.127Z,9.42
2022-10-14T23:32:05.077Z,9.36
2022-10-14T23:37:07.916Z,9.30
2022-10-14T23:42:10.870Z,9.24
2022-10-14T23:47:13.703Z,9.20
2022-10-14T23:52:16.459Z,9.15
2022-10-14T23:57:20.135Z,9.09
